Time;durP1;ratioP1;P1;durP2;ratioP2;P2;SDS_P1;SDS_P2;PMS_P1;PMS_P2;Temp;Humidity;BMP_temperature;BMP_pressure;BME280_temperature;BME280_humidity;BME280_pressure;Samples;Min_cycle;Max_cycle;Signal;HPM_P1;HPM_P2
2022/03/23 00:01:06;;;;;;;35.17;22.30;;;;;;;5.66;72.72;102908.66;5014621;28;20037;-80
2022/03/23 00:03:32;;;;;;;37.13;22.13;;;;;;;5.65;73.20;102907.78;5015934;28;20033;-81
2022/03/23 00:05:57;;;;;;;37.07;22.63;;;;;;;5.64;72.51;102907.91;5016078;28;20476;-82
2022/03/23 00:08:23;;;;;;;40.47;25.00;;;;;;;5.56;71.90;102908.53;5015669;28;20069;-80
2022/03/23 00:10:48;;;;;;;40.27;24.73;;;;;;;5.56;71.87;102906.72;5007779;28;20111;-80
2022/03/23 00:13:14;;;;;;;37.10;24.17;;;;;;;5.48;72.73;102903.81;5016143;28;20079;-81
2022/03/23 00:15:40;;;;;;;36.80;24.33;;;;;;;5.46;72.54;102913.81;5016576;28;20615;-81
2022/03/23 00:18:06;;;;;;;36.47;23.60;;;;;;;5.38;72.29;102905.53;5007917;28;20096;-80
2022/03/23 00:20:32;;;;;;;38.83;24.47;;;;;;;5.37;72.49;102901.13;5007948;28;20057;-80
2022/03/23 00:22:58;;;;;;;39.87;24.63;;;;;;;5.35;71.92;102901.28;5005780;28;20046;-81
2022/03/23 00:25:23;;;;;;;37.90;24.73;;;;;;;5.31;73.44;102899.81;5031017;28;20080;-81
2022/03/23 00:27:49;;;;;;;39.93;23.70;;;;;;;5.22;73.92;102908.63;5014258;28;20041;-81
2022/03/23 00:30:14;;;;;;;39.43;23.10;;;;;;;5.18;73.09;102905.38;5005710;28;20050;-81
2022/03/23 00:32:40;;;;;;;38.03;23.93;;;;;;;5.05;73.71;102904.66;5030156;28;20037;-81
2022/03/23 00:35:05;;;;;;;36.37;23.17;;;;;;;4.95;74.63;102915.28;4998126;28;20034;-80
2022/03/23 00:37:31;;;;;;;35.20;23.57;;;;;;;4.99;74.38;102907.81;5014220;28;20440;-81
2022/03/23 00:39:56;;;;;;;38.47;23.33;;;;;;;4.99;75.03;102905.13;5015315;28;20633;-81
2022/03/23 00:42:22;;;;;;;38.67;24.17;;;;;;;4.94;75.33;102907.31;5005840;28;20033;-81
2022/03/23 00:44:47;;;;;;;40.97;24.67;;;;;;;4.78;75.58;102897.00;5014667;28;20167;-81
2022/03/23 00:47:14;;;;;;;37.87;24.07;;;;;;;4.73;76.24;102905.41;5007185;28;20405;-81
2022/03/23 00:49:40;;;;;;;42.87;25.87;;;;;;;4.83;75.87;102905.53;5014205;28;20037;-81
2022/03/23 00:52:06;;;;;;;42.67;26.27;;;;;;;4.83;75.67;102902.84;5021393;28;20037;-81
2022/03/23 00:54:35;;;;;;;37.33;25.03;;;;;;;4.72;76.62;102914.44;5015472;28;20026;-81
2022/03/23 00:57:03;;;;;;;36.30;25.57;;;;;;;4.61;77.07;102912.63;5015940;28;20454;-81
2022/03/23 00:59:28;;;;;;;44.67;28.03;;;;;;;4.57;76.97;102919.22;5015253;28;20075;-80
2022/03/23 01:01:54;;;;;;;43.23;28.13;;;;;;;4.61;76.86;102918.00;5007115;28;20049;-79
2022/03/23 01:04:19;;;;;;;40.23;28.23;;;;;;;4.56;76.96;102910.28;5033987;28;20026;-81
2022/03/23 01:06:45;;;;;;;40.87;26.67;;;;;;;4.45;77.62;102896.84;5008905;28;20473;-80
2022/03/23 01:09:11;;;;;;;43.33;28.83;;;;;;;4.47;77.24;102899.41;5018882;28;20033;-81
2022/03/23 01:11:37;;;;;;;39.07;25.70;;;;;;;4.44;77.08;102905.03;5019016;28;20916;-81
2022/03/23 01:14:03;;;;;;;44.97;27.43;;;;;;;4.43;76.90;102904.16;5001240;28;20037;-81
2022/03/23 01:16:29;;;;;;;51.47;29.50;;;;;;;4.25;77.19;102902.94;5019381;28;20574;-82
2022/03/23 01:18:54;;;;;;;44.83;27.40;;;;;;;4.35;77.27;102906.59;5001168;28;20041;-82
2022/03/23 01:21:20;;;;;;;44.83;26.70;;;;;;;4.36;77.37;102900.25;5033802;28;20037;-81
2022/03/23 01:23:46;;;;;;;44.70;27.80;;;;;;;4.31;77.33;102900.63;5000935;28;20041;-83
2022/03/23 01:26:11;;;;;;;43.87;27.20;;;;;;;4.27;76.71;102903.66;4992604;28;20397;-81
2022/03/23 01:28:37;;;;;;;43.77;27.23;;;;;;;4.23;77.25;102887.81;5033331;28;20033;-81
2022/03/23 01:31:02;;;;;;;43.03;26.77;;;;;;;4.20;77.64;102897.91;5016702;28;20029;-79
2022/03/23 01:33:28;;;;;;;44.17;25.67;;;;;;;4.12;77.14;102894.97;4992373;28;20485;-81
2022/03/23 01:35:54;;;;;;;40.80;25.63;;;;;;;4.04;77.08;102892.91;5009104;28;20236;-81
2022/03/23 01:38:19;;;;;;;40.27;26.87;;;;;;;4.05;77.62;102884.72;4977971;28;20205;-82
2022/03/23 01:40:44;;;;;;;40.30;26.30;;;;;;;4.09;77.69;102882.66;5017240;28;20049;-80
2022/03/23 01:43:10;;;;;;;43.53;25.87;;;;;;;4.03;78.34;102885.81;5007585;28;20152;-81
2022/03/23 01:45:35;;;;;;;43.50;26.33;;;;;;;4.00;78.71;102886.91;5033530;28;20084;-81
2022/03/23 01:48:01;;;;;;;37.57;24.67;;;;;;;3.92;79.26;102883.09;5033598;28;20166;-80
2022/03/23 01:50:26;;;;;;;39.97;23.40;;;;;;;3.85;79.13;102880.06;5032848;28;20041;-81
2022/03/23 01:52:52;;;;;;;36.93;24.27;;;;;;;3.84;78.72;102879.19;5018843;28;20036;-81
2022/03/23 01:55:20;;;;;;;37.27;23.20;;;;;;;3.82;78.32;102875.78;5000254;28;20037;-82
2022/03/23 01:57:47;;;;;;;37.03;23.10;;;;;;;3.75;79.40;102874.50;5010628;28;20045;-81
2022/03/23 02:00:16;;;;;;;38.77;25.03;;;;;;;3.74;79.30;102872.81;5008319;28;20583;-82
2022/03/23 02:02:44;;;;;;;42.40;25.27;;;;;;;3.70;79.79;102882.06;5017974;28;20033;-82
2022/03/23 02:05:10;;;;;;;44.70;26.63;;;;;;;3.60;80.08;102863.13;5017491;28;20621;-83
2022/03/23 02:07:36;;;;;;;41.77;25.70;;;;;;;3.65;79.98;102882.41;5018030;28;20140;-82
2022/03/23 02:10:04;;;;;;;39.63;25.90;;;;;;;3.68;80.20;102875.97;5018011;28;20455;-80
2022/03/23 02:12:30;;;;;;;43.33;27.33;;;;;;;3.60;80.23;102879.22;5018111;28;20124;-80
2022/03/23 02:15:08;;;;;;;38.37;25.13;;;;;;;3.52;80.84;102861.03;5031452;28;20124;-81
2022/03/23 02:17:34;;;;;;;36.77;22.97;;;;;;;3.46;81.12;102866.84;5017602;28;20056;-81
2022/03/23 02:19:59;;;;;;;41.27;25.70;;;;;;;3.45;81.18;102870.50;5016196;28;20478;-80
2022/03/23 02:22:25;;;;;;;43.90;26.30;;;;;;;3.44;81.40;102876.84;5008249;28;20408;-82
2022/03/23 02:24:50;;;;;;;41.87;26.50;;;;;;;3.43;81.35;102874.25;5032629;28;21348;-81
2022/03/23 02:27:18;;;;;;;45.20;27.83;;;;;;;3.36;81.06;102871.22;4989584;28;20451;-82
2022/03/23 02:29:44;;;;;;;46.63;27.17;;;;;;;3.36;81.26;102873.88;5023541;28;20041;-82
2022/03/23 02:32:10;;;;;;;44.43;28.47;;;;;;;3.39;81.34;102876.31;5006898;28;20140;-82
2022/03/23 02:34:36;;;;;;;43.40;29.07;;;;;;;3.31;81.86;102868.84;5022444;28;20055;-82
2022/03/23 02:37:01;;;;;;;45.37;28.87;;;;;;;3.35;81.50;102874.84;5032101;28;20034;-82
2022/03/23 02:39:27;;;;;;;45.97;30.07;;;;;;;3.40;81.44;102870.00;5008959;28;20523;-82
2022/03/23 02:41:57;;;;;;;43.93;28.17;;;;;;;3.32;81.34;102867.88;5016039;28;20045;-82
2022/03/23 02:44:25;;;;;;;46.77;28.40;;;;;;;3.34;81.53;102878.50;5017770;28;20056;-81
2022/03/23 02:46:51;;;;;;;43.23;28.33;;;;;;;3.33;81.42;102871.41;5023276;28;20082;-81
2022/03/23 02:49:18;;;;;;;44.43;26.63;;;;;;;3.33;81.14;102868.72;5015076;28;20393;-81
2022/03/23 02:51:43;;;;;;;43.17;27.57;;;;;;;3.23;81.21;102870.41;4990890;28;20072;-82
2022/03/23 03:02:38;;;;;;;42.47;27.27;;;;;;;3.10;82.54;102868.63;5016831;28;20044;-81
2022/03/23 03:05:05;;;;;;;40.57;26.43;;;;;;;2.98;82.10;102872.22;5016476;28;20446;-81
2022/03/23 03:08:44;;;;;;;46.30;27.43;;;;;;;2.99;81.52;102873.91;4995664;28;20065;-82
2022/03/23 03:10:16;;;;;;;47.07;27.77;;;;;;;3.03;82.16;102875.38;5014520;28;20656;-82
2022/03/23 03:12:43;;;;;;;42.57;26.73;;;;;;;3.06;82.58;102874.31;5006940;28;20295;-80
2022/03/23 03:15:13;;;;;;;46.13;28.03;;;;;;;2.99;83.05;102871.22;4995413;28;20044;-82
2022/03/23 03:17:38;;;;;;;45.40;29.43;;;;;;;3.02;83.32;102869.19;5016873;28;20643;-82
2022/03/23 03:20:05;;;;;;;46.67;30.37;;;;;;;3.00;83.80;102878.28;5016407;28;20052;-80
2022/03/23 03:22:35;;;;;;;48.50;29.87;;;;;;;2.96;83.77;102884.84;5014854;28;20470;-82
2022/03/23 03:25:01;;;;;;;48.37;29.97;;;;;;;3.00;83.25;102880.97;5014550;28;20391;-81
2022/03/23 03:27:26;;;;;;;47.47;28.27;;;;;;;2.96;83.18;102879.47;5011990;28;20304;-80
2022/03/23 03:29:52;;;;;;;43.17;27.30;;;;;;;2.94;83.94;102887.63;5016962;28;20040;-80
2022/03/23 03:32:17;;;;;;;47.70;31.40;;;;;;;2.93;83.43;102879.72;5014571;28;20124;-81
2022/03/23 03:34:42;;;;;;;50.17;30.87;;;;;;;2.96;83.34;102887.53;5014925;28;20037;-81
2022/03/23 03:37:08;;;;;;;48.60;30.67;;;;;;;2.90;82.74;102893.31;5021718;28;20512;-80
2022/03/23 03:39:33;;;;;;;48.17;29.20;;;;;;;2.95;83.50;102883.13;5005272;28;20065;-80
2022/03/23 03:41:59;;;;;;;47.43;29.10;;;;;;;2.89;82.98;102881.75;5016346;28;20045;-81
2022/03/23 03:44:24;;;;;;;44.23;28.90;;;;;;;2.87;83.47;102884.53;5031453;28;20105;-81
2022/03/23 03:46:50;;;;;;;49.93;29.77;;;;;;;2.91;82.55;102878.97;5007959;28;20069;-82
2022/03/23 03:49:15;;;;;;;46.13;28.77;;;;;;;2.94;82.52;102892.13;5014054;28;20038;-82
2022/03/23 03:51:42;;;;;;;48.97;28.43;;;;;;;2.80;82.84;102882.41;5005395;28;20037;-81
2022/03/23 03:54:08;;;;;;;42.03;26.07;;;;;;;2.85;83.46;102896.31;5014365;28;20036;-82
2022/03/23 03:56:33;;;;;;;44.93;28.73;;;;;;;2.76;83.60;102889.81;5021536;28;21309;-81
2022/03/23 03:58:59;;;;;;;45.23;28.30;;;;;;;2.77;83.40;102883.47;4998551;28;20480;-82
2022/03/23 04:01:24;;;;;;;47.43;28.87;;;;;;;2.71;83.59;102886.63;4997953;28;20033;-81
2022/03/23 04:03:49;;;;;;;45.93;26.33;;;;;;;2.77;83.52;102894.19;4997834;28;20556;-81
2022/03/23 04:06:15;;;;;;;47.00;29.23;;;;;;;2.68;83.24;102892.19;4997065;28;20048;-82
2022/03/23 04:08:40;;;;;;;44.67;28.30;;;;;;;2.64;83.45;102888.88;5016311;28;20061;-81
2022/03/23 04:11:06;;;;;;;41.40;26.27;;;;;;;2.64;83.67;102883.53;5007373;28;20635;-82
2022/03/23 04:13:32;;;;;;;41.07;26.90;;;;;;;2.61;83.22;102890.91;4995926;28;20450;-82
2022/03/23 04:15:57;;;;;;;40.80;26.40;;;;;;;2.61;83.24;102888.22;5021123;28;20033;-82
2022/03/23 04:18:23;;;;;;;39.17;25.07;;;;;;;2.61;83.33;102896.25;5006023;28;20042;-81
2022/03/23 04:20:48;;;;;;;42.80;25.77;;;;;;;2.56;83.81;102891.25;5014093;28;20447;-82
2022/03/23 04:23:14;;;;;;;44.20;27.23;;;;;;;2.51;84.31;102885.34;4997310;28;20052;-81
2022/03/23 04:25:39;;;;;;;44.27;28.00;;;;;;;2.49;84.39;102890.81;4997943;28;20045;-81
2022/03/23 04:28:05;;;;;;;42.40;27.30;;;;;;;2.53;83.86;102896.81;5020529;28;20052;-81
2022/03/23 04:30:31;;;;;;;43.47;27.83;;;;;;;2.53;83.19;102896.81;5013949;28;20064;-82
2022/03/23 04:32:58;;;;;;;43.67;27.60;;;;;;;2.53;83.21;102894.97;5015072;28;20108;-82
2022/03/23 04:35:24;;;;;;;46.57;29.10;;;;;;;2.57;83.30;102884.94;5006125;28;20469;-81
2022/03/23 04:37:50;;;;;;;49.13;30.10;;;;;;;2.64;82.80;102896.91;4998862;28;20041;-82
2022/03/23 04:40:16;;;;;;;42.90;28.20;;;;;;;2.67;82.46;102893.16;5017696;28;20029;-82
2022/03/23 04:42:43;;;;;;;45.67;29.10;;;;;;;2.78;81.40;102901.25;5008957;28;20468;-82
2022/03/23 04:45:09;;;;;;;46.13;28.43;;;;;;;2.94;80.75;102897.47;5017787;28;20292;-82
2022/03/23 04:47:36;;;;;;;40.33;25.33;;;;;;;2.89;81.11;102891.63;5019544;28;20306;-81
2022/03/23 04:50:03;;;;;;;44.97;27.33;;;;;;;3.15;79.22;102900.41;5018030;28;21733;-83
2022/03/23 04:52:30;;;;;;;47.30;28.60;;;;;;;3.22;79.19;102899.00;5010721;28;20508;-82
2022/03/23 04:54:56;;;;;;;43.60;28.73;;;;;;;3.33;78.25;102901.75;5018167;28;21054;-82
2022/03/23 04:57:26;;;;;;;44.93;28.47;;;;;;;3.40;77.76;102896.81;5019160;28;20045;-80
2022/03/23 04:59:52;;;;;;;46.47;28.47;;;;;;;3.42;78.21;102908.25;5019049;28;20037;-81
2022/03/23 05:02:18;;;;;;;43.87;26.93;;;;;;;3.44;78.25;102906.31;5017155;28;20655;-81
2022/03/23 05:04:44;;;;;;;41.30;26.20;;;;;;;3.41;78.28;102903.84;5001506;28;20033;-81
2022/03/23 05:07:10;;;;;;;44.77;27.00;;;;;;;3.38;78.19;102906.78;4991740;28;20050;-81
2022/03/23 05:09:35;;;;;;;38.67;24.60;;;;;;;3.18;78.49;102905.53;5033995;28;20536;-81
2022/03/23 05:12:00;;;;;;;38.70;25.03;;;;;;;3.15;78.52;102908.47;5000289;28;20128;-81
2022/03/23 05:14:26;;;;;;;39.70;26.10;;;;;;;3.14;78.91;102912.97;5001573;28;20048;-80
2022/03/23 05:16:51;;;;;;;39.27;25.70;;;;;;;3.10;79.35;102911.50;4993011;28;20091;-81
2022/03/23 05:19:17;;;;;;;38.50;25.80;;;;;;;3.08;78.33;102915.25;5000734;28;20041;-81
2022/03/23 05:21:42;;;;;;;38.63;26.23;;;;;;;3.03;78.35;102913.75;5009048;28;20036;-82
2022/03/23 05:24:08;;;;;;;43.13;27.87;;;;;;;3.00;78.67;102913.09;5017050;28;20041;-81
2022/03/23 05:26:33;;;;;;;40.17;26.27;;;;;;;2.94;78.39;102916.22;5033603;28;20057;-82
2022/03/23 05:28:58;;;;;;;42.10;26.40;;;;;;;2.93;79.33;102912.69;5018332;28;20065;-82
2022/03/23 05:31:24;;;;;;;40.77;26.73;;;;;;;2.82;78.67;102910.78;5018461;28;20077;-81
2022/03/23 05:33:49;;;;;;;42.67;26.20;;;;;;;2.78;78.64;102911.13;5024335;28;20038;-82
2022/03/23 05:36:15;;;;;;;41.60;26.97;;;;;;;2.90;78.90;102920.09;5016711;28;20053;-81
2022/03/23 05:38:40;;;;;;;40.67;26.53;;;;;;;2.81;78.82;102909.06;5018554;28;20095;-80
2022/03/23 05:41:06;;;;;;;40.70;26.17;;;;;;;2.81;79.13;102911.75;5033659;28;20511;-80
2022/03/23 05:43:31;;;;;;;42.93;25.80;;;;;;;2.77;79.44;102912.09;5000799;28;20038;-81
2022/03/23 05:45:57;;;;;;;41.03;26.87;;;;;;;2.76;79.52;102915.72;5018903;28;20481;-82
2022/03/23 05:48:22;;;;;;;45.67;28.30;;;;;;;2.77;79.86;102928.16;4990476;28;20041;-82
2022/03/23 05:50:47;;;;;;;46.80;28.50;;;;;;;2.79;79.40;102931.56;4999750;28;20037;-82
2022/03/23 05:53:14;;;;;;;47.43;29.33;;;;;;;2.81;78.49;102930.47;5016481;28;20069;-82
2022/03/23 05:55:39;;;;;;;44.00;28.33;;;;;;;2.91;77.84;102925.34;5018333;28;20064;-82
2022/03/23 05:58:05;;;;;;;45.23;27.73;;;;;;;3.00;77.52;102939.88;4999739;28;20118;-81
2022/03/23 06:00:31;;;;;;;48.27;29.27;;;;;;;3.11;76.82;102936.44;5018483;28;20037;-81
2022/03/23 06:02:57;;;;;;;45.60;28.97;;;;;;;3.15;77.06;102946.81;5007712;28;20063;-81
2022/03/23 06:05:22;;;;;;;44.30;29.00;;;;;;;3.19;76.79;102942.09;5016651;28;21649;-82
2022/03/23 06:07:47;;;;;;;45.13;28.60;;;;;;;3.20;77.11;102944.66;5000015;28;21621;-82
2022/03/23 06:10:13;;;;;;;47.60;29.40;;;;;;;3.33;76.36;102946.44;4983008;28;20531;-82
2022/03/23 06:12:38;;;;;;;51.90;28.50;;;;;;;3.32;76.65;102948.28;4999268;28;20464;-81
2022/03/23 06:15:06;;;;;;;46.23;27.80;;;;;;;3.33;76.95;102941.06;5017070;28;20033;-82
2022/03/23 06:17:31;;;;;;;46.83;29.33;;;;;;;3.36;76.44;102948.91;5016302;28;20045;-81
2022/03/23 06:19:57;;;;;;;42.13;26.60;;;;;;;3.30;77.89;102952.03;5024253;28;20029;-81
2022/03/23 06:22:22;;;;;;;46.30;28.23;;;;;;;3.31;77.94;102949.22;5016072;28;20049;-82
2022/03/23 06:24:48;;;;;;;44.73;27.53;;;;;;;3.35;77.89;102960.59;5016873;28;20485;-81
2022/03/23 06:27:13;;;;;;;42.73;27.33;;;;;;;3.40;78.15;102963.81;5015306;28;20044;-81
2022/03/23 06:29:39;;;;;;;43.13;26.53;;;;;;;3.42;78.75;102956.50;5016981;28;20044;-81
2022/03/23 06:32:05;;;;;;;45.67;28.20;;;;;;;3.52;77.41;102962.03;5017437;28;20429;-80
2022/03/23 06:34:30;;;;;;;46.63;29.57;;;;;;;3.58;77.28;102952.66;5018816;28;20156;-81
2022/03/23 06:36:56;;;;;;;45.53;29.87;;;;;;;3.69;75.76;102958.09;5000186;28;20176;-80
2022/03/23 06:39:21;;;;;;;45.70;29.97;;;;;;;3.79;75.40;102963.63;4999708;28;20045;-81
2022/03/23 06:41:47;;;;;;;45.90;29.40;;;;;;;3.82;76.71;102958.91;5016260;28;20045;-81
2022/03/23 06:44:13;;;;;;;47.80;30.10;;;;;;;3.90;76.51;102961.00;5016238;28;20041;-81
2022/03/23 06:46:39;;;;;;;46.43;28.83;;;;;;;3.95;77.57;102968.69;5018073;28;20041;-81
2022/03/23 06:49:05;;;;;;;43.10;29.80;;;;;;;4.05;77.79;102975.06;5017452;28;20053;-80
2022/03/23 06:51:31;;;;;;;43.37;28.80;;;;;;;4.07;79.99;102967.78;4999643;28;20041;-80
2022/03/23 06:53:56;;;;;;;44.63;29.43;;;;;;;4.18;78.36;102969.63;5006608;28;20095;-80
2022/03/23 06:56:22;;;;;;;44.70;30.37;;;;;;;4.27;78.54;102968.94;5015988;28;20045;-81
2022/03/23 06:58:47;;;;;;;46.17;30.50;;;;;;;4.40;79.08;102976.88;5015969;28;20041;-80
2022/03/23 07:01:13;;;;;;;46.80;30.30;;;;;;;4.47;81.25;102974.59;5016029;28;20045;-81
2022/03/23 07:03:38;;;;;;;43.43;30.60;;;;;;;4.56;81.86;102977.41;5016745;28;20037;-81
2022/03/23 07:06:41;;;;;;;46.23;31.73;;;;;;;4.70;79.95;102980.84;5031759;28;20485;-81
2022/03/23 07:11:51;;;;;;;48.47;32.75;;;;;;;5.05;76.59;102979.88;5016245;28;20048;-80
2022/03/23 07:14:17;;;;;;;49.43;32.90;;;;;;;5.20;76.38;102978.63;5006430;28;20037;-80
2022/03/23 07:16:43;;;;;;;50.90;34.30;;;;;;;5.38;75.08;102986.19;5016696;28;20393;-80
2022/03/23 07:19:08;;;;;;;50.60;32.33;;;;;;;5.52;74.99;102983.25;5016155;28;20068;-80
2022/03/23 07:21:34;;;;;;;48.27;32.43;;;;;;;5.65;73.36;102979.53;5015826;28;20148;-80
2022/03/23 07:24:37;;;;;;;45.57;32.40;;;;;;;5.83;72.61;102979.84;5016156;28;20037;-80
2022/03/23 07:27:03;;;;;;;42.93;31.40;;;;;;;5.96;72.09;102980.53;5015771;28;20091;-80
2022/03/23 07:29:28;;;;;;;45.80;32.57;;;;;;;6.08;71.42;102986.75;5015906;28;20156;-80
2022/03/23 07:31:53;;;;;;;47.10;31.53;;;;;;;6.32;69.35;102991.03;5016179;28;20051;-79
2022/03/23 07:34:19;;;;;;;45.80;31.67;;;;;;;6.44;67.47;102989.13;5015855;28;20075;-81
2022/03/23 07:36:48;;;;;;;46.23;31.23;;;;;;;6.62;66.44;103000.16;5014922;28;20033;-81
2022/03/23 07:39:16;;;;;;;43.77;30.67;;;;;;;6.76;65.31;102999.81;5007819;28;20072;-80
2022/03/23 07:41:43;;;;;;;45.33;30.27;;;;;;;6.92;64.19;102992.09;5015904;28;20432;-80
2022/03/23 07:44:08;;;;;;;48.50;31.03;;;;;;;7.05;65.76;102986.47;5016044;28;20033;-80
2022/03/23 07:46:34;;;;;;;42.97;30.03;;;;;;;7.31;62.92;103006.72;5015992;28;20512;-81
2022/03/23 07:49:00;;;;;;;45.30;31.43;;;;;;;7.55;63.61;103000.97;5014274;28;20061;-81
2022/03/23 07:51:25;;;;;;;44.67;29.87;;;;;;;7.69;59.56;102999.72;5015795;28;20040;-81
2022/03/23 07:53:51;;;;;;;43.27;29.93;;;;;;;7.80;58.75;102996.88;5015926;28;20041;-81
2022/03/23 07:56:16;;;;;;;44.10;29.47;;;;;;;8.01;59.72;103007.56;5015827;28;20128;-81
2022/03/23 07:58:41;;;;;;;46.67;30.67;;;;;;;8.22;59.19;103007.41;5007332;28;20041;-81
2022/03/23 08:01:07;;;;;;;45.03;29.23;;;;;;;8.41;58.42;103011.94;5015556;28;21418;-81
2022/03/23 08:03:32;;;;;;;43.00;31.23;;;;;;;8.55;57.58;103005.25;5015671;28;20033;-81
2022/03/23 08:05:57;;;;;;;45.30;29.30;;;;;;;8.75;56.31;103013.31;5014500;28;20053;-81
2022/03/23 08:08:23;;;;;;;42.13;29.47;;;;;;;8.89;55.89;103018.25;5014884;28;20072;-81
2022/03/23 08:10:48;;;;;;;43.67;29.30;;;;;;;9.16;56.38;103015.75;5016011;28;20029;-82
2022/03/23 08:13:16;;;;;;;43.37;29.73;;;;;;;9.43;55.85;103004.06;5015210;28;20508;-81
2022/03/23 08:15:42;;;;;;;42.20;29.50;;;;;;;9.83;56.23;103005.50;5015952;28;20037;-80
2022/03/23 08:18:08;;;;;;;43.83;30.40;;;;;;;10.17;54.12;103009.38;5014718;28;20036;-81
2022/03/23 08:20:33;;;;;;;42.00;28.40;;;;;;;10.50;53.02;103012.38;5015633;28;20041;-81
2022/03/23 08:23:03;;;;;;;40.00;28.43;;;;;;;10.93;51.92;103006.06;5015165;28;20057;-81
2022/03/23 08:25:29;;;;;;;41.57;28.37;;;;;;;11.25;48.76;103012.66;5015611;28;20043;-81
2022/03/23 08:27:57;;;;;;;39.93;28.27;;;;;;;11.63;49.27;103020.44;5015045;28;20037;-81
2022/03/23 08:30:22;;;;;;;42.23;28.37;;;;;;;12.00;47.85;103013.75;5015407;28;20064;-81
2022/03/23 08:32:48;;;;;;;41.23;28.87;;;;;;;12.43;47.17;103017.16;5014720;28;20703;-81
2022/03/23 08:35:13;;;;;;;38.60;27.70;;;;;;;12.76;47.64;103019.81;5015312;28;20044;-81
2022/03/23 08:37:39;;;;;;;41.30;28.67;;;;;;;13.18;45.92;103017.84;5015079;28;20038;-81
2022/03/23 08:40:05;;;;;;;41.13;29.17;;;;;;;13.48;45.20;103012.63;5030007;28;20041;-81
2022/03/23 08:42:31;;;;;;;39.80;28.73;;;;;;;13.68;44.12;103015.72;5013507;28;20064;-81
2022/03/23 08:44:56;;;;;;;39.60;28.70;;;;;;;14.10;44.49;103005.41;5014882;28;20481;-80
2022/03/23 08:47:22;;;;;;;38.17;27.77;;;;;;;14.38;42.64;103013.84;5015151;28;20049;-81
2022/03/23 08:49:48;;;;;;;38.47;28.60;;;;;;;14.73;41.99;103014.25;5014862;28;20041;-81
2022/03/23 08:52:13;;;;;;;38.17;27.77;;;;;;;15.12;41.97;103012.25;5014647;28;20123;-81
2022/03/23 08:54:39;;;;;;;35.07;28.33;;;;;;;15.45;41.30;103007.22;5015373;28;21430;-81
2022/03/23 08:57:04;;;;;;;36.33;25.97;;;;;;;15.80;39.93;103007.44;5015370;28;20175;-81
2022/03/23 08:59:30;;;;;;;39.07;27.87;;;;;;;15.62;39.28;103021.50;4996736;28;20038;-81
2022/03/23 09:01:56;;;;;;;35.83;27.80;;;;;;;15.46;39.91;103011.66;5014636;28;20041;-80
2022/03/23 09:04:22;;;;;;;33.17;27.23;;;;;;;15.73;38.87;103019.31;5014604;28;20087;-82
2022/03/23 09:06:47;;;;;;;34.70;26.70;;;;;;;16.17;39.00;103023.81;5015245;28;20034;-81
2022/03/23 09:09:13;;;;;;;35.50;26.60;;;;;;;16.48;36.97;103017.97;5012714;28;20064;-81
2022/03/23 09:11:38;;;;;;;35.03;26.67;;;;;;;16.90;36.88;103020.78;5014997;28;20052;-81
2022/03/23 09:14:04;;;;;;;34.10;26.42;;;;;;;17.19;36.53;103022.44;5015186;28;20473;-82
2022/03/23 09:16:29;;;;;;;35.40;26.63;;;;;;;17.46;36.11;103024.44;5015382;28;20041;-81
2022/03/23 09:18:55;;;;;;;32.63;26.02;;;;;;;18.01;37.76;103021.69;5014392;28;20041;-81
2022/03/23 09:21:21;;;;;;;32.17;26.42;;;;;;;18.09;34.60;103023.34;5014955;28;20041;-81
2022/03/23 09:23:48;;;;;;;35.47;27.00;;;;;;;18.00;35.47;103031.78;5015592;28;20037;-81
2022/03/23 09:26:14;;;;;;;32.78;25.15;;;;;;;18.17;32.81;103023.19;5017581;28;20076;-81
2022/03/23 09:28:39;;;;;;;31.52;25.05;;;;;;;18.29;33.14;103020.63;5018425;28;20460;-81
2022/03/23 09:31:05;;;;;;;33.60;26.05;;;;;;;18.35;33.34;103017.88;5018465;28;20128;-81
2022/03/23 09:33:31;;;;;;;32.50;25.67;;;;;;;18.37;32.24;103021.28;5018021;28;20037;-81
2022/03/23 09:35:57;;;;;;;32.50;25.17;;;;;;;18.70;34.12;103020.41;5009946;28;20048;-81
2022/03/23 09:38:22;;;;;;;36.22;26.17;;;;;;;19.23;34.37;103013.13;5018312;28;20045;-79
2022/03/23 09:40:52;;;;;;;31.80;24.75;;;;;;;19.34;32.23;103015.19;5017812;28;20068;-80
2022/03/23 09:43:23;;;;;;;33.15;24.30;;;;;;;19.46;31.20;103017.22;5017998;28;20537;-81
2022/03/23 09:45:48;;;;;;;31.88;25.50;;;;;;;19.94;32.08;103021.41;5018233;28;20033;-80
2022/03/23 09:48:16;;;;;;;35.65;26.25;;;;;;;19.86;31.98;103017.88;5018143;28;22128;-81
2022/03/23 09:50:47;;;;;;;31.98;24.77;;;;;;;20.05;31.22;103012.47;5017936;28;20087;-80
2022/03/23 09:53:13;;;;;;;33.45;24.30;;;;;;;20.03;28.65;103015.44;5016482;28;20071;-81
2022/03/23 09:55:39;;;;;;;30.42;24.60;;;;;;;20.02;29.44;103022.00;5010400;28;20045;-81
2022/03/23 09:58:06;;;;;;;31.23;24.88;;;;;;;19.92;29.18;103016.16;5017886;28;20363;-83
2022/03/23 10:00:41;;;;;;;32.53;25.38;;;;;;;20.07;30.11;103021.34;5018316;28;20041;-81
2022/03/23 10:03:12;;;;;;;31.10;25.05;;;;;;;19.88;30.20;103026.78;5017762;28;20033;-80
2022/03/23 10:06:09;;;;;;;31.75;25.42;;;;;;;20.50;31.93;103017.81;5018470;28;20136;-79
2022/03/23 10:09:09;;;;;;;32.10;25.02;;;;;;;20.52;30.53;103021.19;5017418;28;20053;-79
2022/03/23 10:12:05;;;;;;;32.00;25.38;;;;;;;20.62;31.37;103025.34;5018176;28;20045;-79
2022/03/23 10:14:46;;;;;;;33.42;24.98;;;;;;;20.86;30.99;103021.72;5013698;28;20052;-81
2022/03/23 10:17:44;;;;;;;31.23;24.42;;;;;;;20.96;30.01;103025.88;5013914;28;20112;-82
2022/03/23 10:20:13;;;;;;;33.67;26.17;;;;;;;20.82;30.81;103022.41;5013792;28;20049;-81
2022/03/23 10:22:46;;;;;;;31.55;25.60;;;;;;;21.05;29.99;103011.56;5014161;28;20175;-81
2022/03/23 10:25:13;;;;;;;31.10;24.73;;;;;;;20.86;29.86;103013.47;5013205;28;20045;-81
2022/03/23 10:27:38;;;;;;;30.65;25.60;;;;;;;20.84;30.33;103017.50;5014204;28;20047;-81
2022/03/23 10:30:04;;;;;;;33.00;25.95;;;;;;;20.99;28.85;103015.22;5012987;28;20041;-81
2022/03/23 10:32:42;;;;;;;33.65;25.90;;;;;;;21.20;30.94;103016.69;5020697;28;20136;-81
2022/03/23 10:35:16;;;;;;;32.45;25.58;;;;;;;21.48;29.37;103012.50;5012822;28;20029;-81
2022/03/23 10:37:45;;;;;;;33.92;26.02;;;;;;;21.50;28.02;103010.34;5014091;28;20029;-81
2022/03/23 10:40:14;;;;;;;30.73;25.10;;;;;;;21.60;26.91;103015.34;5013775;28;20033;-81
2022/03/23 10:42:42;;;;;;;29.85;24.98;;;;;;;21.67;30.22;103012.50;5029740;28;20029;-80
2022/03/23 10:45:10;;;;;;;33.30;25.60;;;;;;;21.95;27.78;103006.34;5013357;28;20419;-80
2022/03/23 10:47:38;;;;;;;34.15;24.55;;;;;;;22.15;26.07;103011.50;5016381;28;20045;-81
2022/03/23 10:50:21;;;;;;;29.48;24.02;;;;;;;22.45;26.20;103007.03;5016473;28;20073;-79
2022/03/23 10:52:49;;;;;;;33.53;25.55;;;;;;;22.17;26.26;102997.50;5017473;28;20552;-79
2022/03/23 10:55:15;;;;;;;30.63;24.48;;;;;;;22.48;26.15;103004.63;5016854;28;20052;-78
2022/03/23 10:57:43;;;;;;;28.48;23.40;;;;;;;22.49;24.99;102999.94;5017168;28;20098;-81
2022/03/23 11:00:25;;;;;;;29.45;22.95;;;;;;;22.35;23.69;102997.41;5008949;28;20073;-80
2022/03/23 11:02:51;;;;;;;26.75;21.75;;;;;;;22.62;25.73;102994.19;5017055;28;20109;-79
2022/03/23 11:05:33;;;;;;;25.80;20.77;;;;;;;22.84;23.57;102993.56;5016850;28;20098;-79
2022/03/23 11:08:11;;;;;;;28.63;22.08;;;;;;;22.85;24.03;102998.00;5016653;28;20057;-81
2022/03/23 11:16:38;;;;;;;28.85;23.42;;;;;;;22.55;24.44;102980.47;5016750;28;20056;-82
2022/03/23 11:19:26;;;;;;;29.45;23.15;;;;;;;22.92;24.48;102990.41;5016613;28;20489;-81
2022/03/23 11:22:01;;;;;;;28.52;22.33;;;;;;;22.65;22.95;102990.09;5016633;28;20030;-81
2022/03/23 11:24:28;;;;;;;28.08;23.48;;;;;;;22.37;23.12;102984.22;5016803;28;20041;-82
2022/03/23 11:26:58;;;;;;;30.00;23.40;;;;;;;22.49;24.67;102983.38;5015049;28;20040;-80
2022/03/23 11:29:23;;;;;;;27.20;22.35;;;;;;;22.40;23.27;102980.13;5015848;28;20040;-79
2022/03/23 11:31:51;;;;;;;27.88;22.25;;;;;;;22.39;22.46;102976.50;5016460;28;20041;-79